Time;durP1;ratioP1;P1;durP2;ratioP2;P2;SDS_P1;SDS_P2;PMS_P1;PMS_P2;Temp;Humidity;BMP_temperature;BMP_pressure;BME280_temperature;BME280_humidity;BME280_pressure;Samples;Min_cycle;Max_cycle;Signal;HPM_P1;HPM_P2
2022/08/28 00:00:34;;;;;;;9.60;3.78;;;19.00;96.60;;;;;;5100846;28;20211;-59
2022/08/28 00:03:00;;;;;;;12.07;4.30;;;19.00;96.70;;;;;;5113530;28;20177;-59
2022/08/28 00:05:28;;;;;;;12.35;4.00;;;19.00;97.00;;;;;;5102107;28;20181;-64
2022/08/28 00:07:55;;;;;;;8.13;3.72;;;19.00;96.70;;;;;;5094533;28;20205;-60
2022/08/28 00:10:22;;;;;;;10.52;3.90;;;19.00;96.80;;;;;;5095660;28;20209;-59
2022/08/28 00:12:50;;;;;;;14.30;4.50;;;19.00;96.90;;;;;;5103976;28;20179;-59
2022/08/28 00:15:20;;;;;;;14.80;3.80;;;19.00;96.90;;;;;;5108734;28;20647;-60
2022/08/28 00:17:46;;;;;;;11.57;3.80;;;19.00;97.00;;;;;;5113662;28;20169;-60
2022/08/28 00:20:14;;;;;;;14.13;3.63;;;19.00;97.00;;;;;;5100324;28;20241;-59
2022/08/28 00:22:41;;;;;;;10.70;3.58;;;19.00;97.10;;;;;;5092988;28;20709;-59
2022/08/28 00:25:09;;;;;;;13.50;4.30;;;19.00;97.10;;;;;;5101449;28;20177;-59
2022/08/28 00:27:53;;;;;;;13.50;4.18;;;19.00;97.20;;;;;;5095933;28;20260;-63
2022/08/28 00:30:35;;;;;;;12.60;3.90;;;18.90;97.30;;;;;;5063413;28;20190;-59
2022/08/28 00:33:05;;;;;;;13.55;3.30;;;18.90;97.40;;;;;;5093898;28;20173;-59
2022/08/28 00:35:32;;;;;;;12.93;3.67;;;18.90;97.50;;;;;;5093114;28;20174;-59
2022/08/28 00:37:58;;;;;;;10.13;3.00;;;18.90;97.50;;;;;;5105450;28;20173;-58
2022/08/28 00:40:27;;;;;;;9.10;3.10;;;18.90;97.60;;;;;;5096114;28;20220;-59
2022/08/28 00:42:54;;;;;;;9.10;3.13;;;18.90;97.70;;;;;;5093113;28;20173;-59
2022/08/28 00:45:21;;;;;;;9.65;3.40;;;18.90;97.80;;;;;;5088036;28;20268;-59
2022/08/28 00:47:47;;;;;;;8.32;3.33;;;18.90;97.90;;;;;;5095499;28;20180;-59
2022/08/28 00:50:17;;;;;;;10.27;3.72;;;18.90;97.90;;;;;;5106976;28;20181;-59
2022/08/28 00:52:50;;;;;;;10.45;3.65;;;18.80;97.90;;;;;;5096591;28;20244;-59
2022/08/28 00:55:19;;;;;;;11.20;3.33;;;18.80;97.90;;;;;;5092479;28;20219;-60
2022/08/28 00:57:50;;;;;;;9.82;3.50;;;18.80;98.00;;;;;;5097465;28;20181;-59
2022/08/28 01:00:31;;;;;;;14.35;3.40;;;18.80;98.10;;;;;;5111052;28;20201;-59
2022/08/28 01:02:57;;;;;;;10.63;3.22;;;18.80;98.20;;;;;;5099213;28;20177;-59
2022/08/28 01:05:24;;;;;;;11.98;3.65;;;18.70;98.20;;;;;;5082143;28;20174;-59
2022/08/28 01:07:51;;;;;;;10.52;3.30;;;18.70;98.30;;;;;;5067418;28;20181;-59
2022/08/28 01:10:22;;;;;;;12.93;3.17;;;18.60;98.40;;;;;;5094982;28;20264;-59
2022/08/28 01:12:49;;;;;;;9.55;3.28;;;18.60;98.40;;;;;;5112974;28;20169;-59
2022/08/28 01:15:19;;;;;;;11.65;2.83;;;18.60;98.50;;;;;;5105796;28;20189;-62
2022/08/28 01:17:52;;;;;;;11.05;3.30;;;18.60;98.60;;;;;;5078265;28;20186;-60
2022/08/28 01:20:22;;;;;;;13.85;3.47;;;18.50;98.60;;;;;;5089737;28;20283;-59
2022/08/28 01:23:34;;;;;;;14.75;3.78;;;18.50;98.70;;;;;;5077372;28;20276;-59
2022/08/28 01:26:00;;;;;;;12.98;3.40;;;18.50;98.70;;;;;;5096082;28;20198;-59
2022/08/28 01:28:26;;;;;;;9.40;3.17;;;18.50;98.80;;;;;;5116913;28;20261;-59
2022/08/28 01:30:51;;;;;;;12.63;3.20;;;18.40;98.90;;;;;;5097657;28;20182;-59
2022/08/28 01:33:18;;;;;;;9.63;3.05;;;18.40;99.00;;;;;;5096493;28;20182;-58
2022/08/28 01:35:46;;;;;;;10.57;2.90;;;18.40;99.10;;;;;;5099289;27;20297;-60
2022/08/28 01:38:13;;;;;;;7.13;3.10;;;18.30;99.30;;;;;;5095413;28;20175;-62
2022/08/28 01:40:43;;;;;;;10.25;2.97;;;18.30;99.40;;;;;;5096609;28;20697;-59
2022/08/28 01:43:12;;;;;;;11.07;3.47;;;18.30;99.40;;;;;;5095977;28;20211;-58
2022/08/28 01:45:40;;;;;;;9.00;3.25;;;18.30;99.50;;;;;;5078050;28;20203;-62
2022/08/28 01:48:06;;;;;;;13.20;3.28;;;18.30;99.50;;;;;;5096319;28;20174;-59
2022/08/28 01:50:33;;;;;;;8.02;3.03;;;18.30;99.60;;;;;;5093036;28;20185;-59
2022/08/28 01:53:00;;;;;;;9.95;3.03;;;18.30;99.60;;;;;;5097565;28;20228;-59
2022/08/28 01:55:26;;;;;;;10.00;3.08;;;18.30;99.70;;;;;;5094974;28;20184;-59
2022/08/28 01:57:53;;;;;;;12.43;3.05;;;18.20;99.70;;;;;;5115551;28;20181;-59
2022/08/28 02:00:24;;;;;;;9.93;3.03;;;18.20;99.70;;;;;;5101511;28;20220;-59
2022/08/28 02:02:50;;;;;;;11.07;3.20;;;18.20;99.80;;;;;;5113534;27;20209;-59
2022/08/28 02:05:17;;;;;;;13.52;3.25;;;18.20;99.90;;;;;;5103222;28;20412;-59
2022/08/28 02:07:42;;;;;;;10.85;3.38;;;18.10;99.90;;;;;;5100178;28;20594;-59
2022/08/28 02:10:10;;;;;;;13.75;3.38;;;18.10;99.90;;;;;;5103061;28;20190;-59
2022/08/28 02:12:37;;;;;;;12.45;3.50;;;18.10;99.90;;;;;;5095625;28;20178;-60
2022/08/28 02:15:06;;;;;;;12.77;3.58;;;18.10;99.90;;;;;;5095138;28;20204;-60
2022/08/28 02:17:32;;;;;;;9.80;3.45;;;18.10;99.90;;;;;;5095270;28;20714;-59
2022/08/28 02:19:58;;;;;;;11.07;3.75;;;18.10;99.90;;;;;;5104395;28;20216;-59
2022/08/28 02:22:25;;;;;;;8.45;3.10;;;18.00;99.90;;;;;;5115903;28;20181;-59
2022/08/28 02:24:50;;;;;;;11.52;3.65;;;18.00;99.90;;;;;;5112462;28;20176;-59
2022/08/28 02:27:16;;;;;;;12.80;3.20;;;18.00;99.90;;;;;;5083620;28;20185;-59
2022/08/28 02:29:42;;;;;;;10.55;3.20;;;17.90;99.90;;;;;;5088685;28;20202;-62
2022/08/28 02:32:09;;;;;;;12.75;3.50;;;17.90;99.90;;;;;;5094904;28;20204;-59
2022/08/28 02:34:36;;;;;;;6.72;3.20;;;17.90;99.90;;;;;;5111076;28;20530;-60
2022/08/28 02:37:02;;;;;;;8.57;3.42;;;17.80;99.90;;;;;;5111236;28;20173;-59
2022/08/28 02:39:28;;;;;;;17.20;3.67;;;17.80;99.90;;;;;;5105915;28;20288;-59
2022/08/28 02:41:54;;;;;;;12.02;3.20;;;17.80;99.90;;;;;;5094858;28;20193;-59
2022/08/28 02:44:20;;;;;;;10.95;3.40;;;17.80;99.90;;;;;;5101217;27;20186;-59
2022/08/28 02:46:46;;;;;;;13.18;3.33;;;17.80;99.90;;;;;;5089347;28;20182;-59
2022/08/28 02:49:11;;;;;;;12.80;3.35;;;17.80;99.90;;;;;;5096501;28;20182;-59
2022/08/28 02:51:37;;;;;;;11.23;2.97;;;17.70;99.90;;;;;;5075619;28;20226;-59
2022/08/28 02:54:03;;;;;;;12.02;3.00;;;17.70;99.90;;;;;;5076576;28;20618;-59
2022/08/28 02:56:29;;;;;;;7.10;2.70;;;17.70;99.90;;;;;;5094553;28;20216;-59
2022/08/28 02:58:55;;;;;;;11.27;3.00;;;17.70;99.90;;;;;;5087518;28;20636;-59
2022/08/28 03:01:21;;;;;;;8.25;2.88;;;17.70;99.90;;;;;;5103122;28;20177;-59
2022/08/28 03:03:47;;;;;;;11.38;2.88;;;17.70;99.90;;;;;;5112167;28;20192;-58
2022/08/28 03:06:13;;;;;;;13.38;3.80;;;17.70;99.90;;;;;;5094629;28;20189;-59
2022/08/28 03:08:40;;;;;;;10.70;4.05;;;17.70;99.90;;;;;;5095093;28;20173;-63
2022/08/28 03:11:06;;;;;;;13.25;3.35;;;17.70;99.90;;;;;;5102995;28;20185;-59
2022/08/28 03:13:32;;;;;;;11.88;3.50;;;17.70;99.90;;;;;;5107127;28;20655;-59
2022/08/28 03:15:58;;;;;;;10.18;3.33;;;17.70;99.90;;;;;;5112160;28;20689;-59
2022/08/28 03:18:26;;;;;;;16.45;4.13;;;17.70;99.90;;;;;;5098858;28;20269;-59
2022/08/28 03:20:54;;;;;;;13.80;3.38;;;17.70;99.90;;;;;;5096708;28;20212;-59
2022/08/28 03:23:25;;;;;;;12.18;2.72;;;17.70;99.90;;;;;;5114265;28;20180;-59
2022/08/28 03:26:16;;;;;;;8.30;2.72;;;17.70;99.90;;;;;;5094043;28;20638;-59
2022/08/28 03:28:48;;;;;;;9.30;2.70;;;17.60;99.90;;;;;;5093364;28;20155;-59
2022/08/28 03:31:17;;;;;;;8.10;2.72;;;17.70;99.90;;;;;;5096405;28;20663;-59
2022/08/28 03:33:44;;;;;;;7.55;2.60;;;17.70;99.90;;;;;;5113484;28;20176;-59
2022/08/28 03:36:13;;;;;;;11.90;2.70;;;17.70;99.90;;;;;;5093738;28;20555;-59
2022/08/28 03:38:40;;;;;;;10.88;2.70;;;17.60;99.90;;;;;;5103841;28;20234;-64
2022/08/28 03:41:15;;;;;;;13.73;3.30;;;17.60;99.90;;;;;;5095755;28;20292;-59
2022/08/28 03:43:41;;;;;;;8.63;3.00;;;17.60;99.90;;;;;;5093787;28;20181;-60
2022/08/28 03:46:11;;;;;;;10.60;3.17;;;17.60;99.90;;;;;;5095848;28;20234;-58
2022/08/28 03:48:37;;;;;;;12.70;3.28;;;17.60;99.90;;;;;;5113899;28;20177;-59
2022/08/28 03:51:15;;;;;;;9.13;2.92;;;17.60;99.90;;;;;;5096101;28;20188;-59
2022/08/28 03:53:42;;;;;;;7.97;2.80;;;17.60;99.90;;;;;;5094532;28;20192;-62
2022/08/28 03:56:10;;;;;;;10.90;2.33;;;17.50;99.90;;;;;;5110286;28;20226;-61
2022/08/28 03:58:37;;;;;;;8.70;2.65;;;17.50;99.90;;;;;;5096107;28;20576;-60
2022/08/28 04:01:03;;;;;;;8.90;2.83;;;17.50;99.90;;;;;;5078699;28;20224;-61
2022/08/28 04:03:29;;;;;;;9.80;2.75;;;17.50;99.90;;;;;;5109693;28;20512;-58
2022/08/28 04:05:55;;;;;;;8.65;2.22;;;17.50;99.90;;;;;;5094589;28;20189;-59
2022/08/28 04:08:21;;;;;;;8.68;3.08;;;17.50;99.90;;;;;;5075180;28;20177;-59
2022/08/28 04:10:48;;;;;;;6.05;2.53;;;17.40;99.90;;;;;;5076438;28;20174;-61
2022/08/28 04:13:16;;;;;;;12.77;2.75;;;17.40;99.90;;;;;;5095366;28;20185;-59
2022/08/28 04:15:41;;;;;;;8.88;2.65;;;17.40;99.90;;;;;;5109467;28;20188;-59
2022/08/28 04:18:09;;;;;;;8.40;2.40;;;17.30;99.90;;;;;;5111427;28;20400;-58
2022/08/28 04:20:35;;;;;;;9.63;2.58;;;17.20;99.90;;;;;;5097846;28;20237;-58
2022/08/28 04:23:02;;;;;;;9.07;2.90;;;17.20;99.90;;;;;;5077922;28;20185;-60
2022/08/28 04:25:31;;;;;;;8.40;2.65;;;17.20;99.90;;;;;;5088173;28;20173;-58
2022/08/28 04:27:57;;;;;;;10.75;2.80;;;17.20;99.90;;;;;;5096047;28;20173;-60
2022/08/28 04:30:23;;;;;;;8.80;2.85;;;17.10;99.90;;;;;;5094442;28;20254;-59
2022/08/28 04:32:48;;;;;;;6.07;2.67;;;17.10;99.90;;;;;;5110537;28;20188;-59
2022/08/28 04:35:14;;;;;;;12.07;2.92;;;17.10;99.90;;;;;;5097076;28;20185;-58
2022/08/28 04:37:44;;;;;;;7.38;2.65;;;17.10;99.90;;;;;;5113437;28;20530;-59
2022/08/28 04:40:11;;;;;;;10.10;2.90;;;17.10;99.90;;;;;;5109093;28;20203;-59
2022/08/28 04:42:38;;;;;;;10.50;2.67;;;17.10;99.90;;;;;;5106883;28;20303;-58
2022/08/28 04:45:05;;;;;;;7.80;2.70;;;17.10;99.90;;;;;;5093868;28;20188;-59
2022/08/28 04:47:35;;;;;;;11.43;2.63;;;17.10;99.90;;;;;;5104820;28;20227;-59
2022/08/28 04:50:03;;;;;;;10.75;2.80;;;17.10;99.90;;;;;;5102389;28;20185;-59
2022/08/28 04:52:29;;;;;;;13.65;2.70;;;17.10;99.90;;;;;;5113622;28;20221;-58
2022/08/28 04:54:54;;;;;;;7.72;2.50;;;17.10;99.90;;;;;;5102414;28;20473;-58
2022/08/28 04:57:20;;;;;;;8.88;2.60;;;17.10;99.90;;;;;;5104594;28;20216;-60
2022/08/28 04:59:46;;;;;;;10.95;2.50;;;17.10;99.90;;;;;;5103107;28;20202;-61
2022/08/28 05:02:12;;;;;;;11.52;2.63;;;17.10;99.90;;;;;;5077398;28;20656;-59
2022/08/28 05:04:38;;;;;;;6.18;2.17;;;17.10;99.90;;;;;;5097135;28;20565;-59
2022/08/28 05:07:04;;;;;;;10.15;2.75;;;17.10;99.90;;;;;;5078865;28;20197;-59
2022/08/28 05:09:30;;;;;;;10.90;2.60;;;17.10;99.90;;;;;;5096537;28;20189;-59
2022/08/28 05:12:02;;;;;;;13.88;2.33;;;17.10;99.90;;;;;;5085021;28;20185;-59
2022/08/28 05:14:28;;;;;;;10.20;2.65;;;17.10;99.90;;;;;;5101823;28;20659;-59
2022/08/28 05:16:55;;;;;;;10.02;2.70;;;17.10;99.90;;;;;;5079693;28;20193;-59
2022/08/28 05:19:22;;;;;;;9.68;3.20;;;17.10;99.90;;;;;;5110904;28;20210;-59
2022/08/28 05:21:49;;;;;;;7.95;2.55;;;17.10;99.90;;;;;;5096385;28;20228;-62
2022/08/28 05:24:15;;;;;;;9.10;2.70;;;17.20;99.90;;;;;;5084001;28;20194;-58
2022/08/28 05:26:41;;;;;;;8.85;2.33;;;17.20;99.90;;;;;;5096228;28;20182;-58
2022/08/28 05:29:08;;;;;;;11.18;2.90;;;17.20;99.90;;;;;;5106549;28;20165;-59
2022/08/28 05:31:37;;;;;;;7.93;2.80;;;17.20;99.90;;;;;;5113076;28;20170;-59
2022/08/28 05:34:04;;;;;;;14.30;3.10;;;17.20;99.90;;;;;;5097010;27;20186;-59
2022/08/28 05:36:33;;;;;;;12.25;3.33;;;17.20;99.90;;;;;;5101236;28;20227;-58
2022/08/28 05:39:00;;;;;;;7.28;3.00;;;17.20;99.90;;;;;;5111350;27;22514;-59
2022/08/28 05:41:29;;;;;;;9.10;3.47;;;17.20;99.90;;;;;;5095935;28;20232;-59
2022/08/28 05:43:58;;;;;;;9.48;3.13;;;17.20;99.90;;;;;;5096997;28;20644;-59
2022/08/28 05:46:24;;;;;;;12.95;3.30;;;17.20;99.90;;;;;;5109462;28;20188;-65
2022/08/28 05:48:49;;;;;;;15.07;3.28;;;17.20;99.90;;;;;;5105127;28;20235;-59
2022/08/28 05:51:19;;;;;;;14.45;3.35;;;17.30;99.90;;;;;;5102013;27;20186;-59
2022/08/28 05:53:46;;;;;;;11.85;3.40;;;17.30;99.90;;;;;;5110383;28;20264;-62
2022/08/28 05:56:21;;;;;;;8.90;2.95;;;17.30;99.90;;;;;;5115002;28;20189;-59
2022/08/28 05:58:47;;;;;;;9.30;2.90;;;17.30;99.90;;;;;;5108428;28;20235;-56
2022/08/28 06:01:17;;;;;;;12.70;3.60;;;17.40;99.90;;;;;;5097296;28;20213;-55
2022/08/28 06:03:46;;;;;;;13.27;3.00;;;17.50;99.90;;;;;;5097434;27;20189;-56
2022/08/28 06:06:12;;;;;;;16.17;3.33;;;17.60;99.90;;;;;;5097196;28;20208;-59
2022/08/28 06:08:39;;;;;;;12.30;2.70;;;17.60;99.90;;;;;;5094607;28;20205;-58
2022/08/28 06:11:06;;;;;;;9.13;2.60;;;17.70;99.90;;;;;;5095892;28;20205;-56
2022/08/28 06:13:32;;;;;;;9.52;2.38;;;17.80;99.90;;;;;;5102351;28;20192;-55
2022/08/28 06:15:58;;;;;;;6.75;2.50;;;17.90;99.90;;;;;;5112228;28;20208;-53
2022/08/28 06:18:25;;;;;;;11.25;2.75;;;17.90;99.90;;;;;;5086533;28;20276;-57
2022/08/28 06:20:52;;;;;;;12.35;2.50;;;18.00;99.90;;;;;;5111201;28;20717;-54
2022/08/28 06:23:20;;;;;;;12.27;2.80;;;18.00;99.90;;;;;;5097566;28;20173;-57
2022/08/28 06:25:49;;;;;;;7.63;2.40;;;18.10;99.90;;;;;;5111833;28;20173;-57
2022/08/28 06:28:20;;;;;;;10.70;3.05;;;18.20;99.90;;;;;;5098377;28;20675;-57
2022/08/28 06:30:46;;;;;;;11.80;2.80;;;18.20;99.90;;;;;;5090599;28;20176;-55
2022/08/28 06:33:15;;;;;;;7.75;2.30;;;18.30;99.90;;;;;;5096965;27;20637;-59
2022/08/28 06:35:48;;;;;;;8.80;2.63;;;18.30;99.90;;;;;;5102735;27;20190;-58
2022/08/28 06:38:16;;;;;;;10.40;2.75;;;18.30;99.90;;;;;;5097197;27;20181;-54
2022/08/28 06:40:45;;;;;;;7.53;2.60;;;18.30;99.90;;;;;;5093719;28;20236;-56
2022/08/28 06:43:12;;;;;;;10.57;2.40;;;18.30;99.90;;;;;;5111877;28;20177;-56
2022/08/28 06:45:47;;;;;;;10.95;2.50;;;18.40;99.90;;;;;;5077152;28;20645;-56
2022/08/28 06:48:15;;;;;;;9.48;2.22;;;18.40;99.90;;;;;;5095004;28;20212;-55
2022/08/28 06:50:48;;;;;;;8.07;2.35;;;18.40;99.90;;;;;;5063254;28;20181;-57
2022/08/28 06:53:16;;;;;;;11.05;3.10;;;18.50;99.90;;;;;;5111380;28;20221;-57
2022/08/28 06:55:42;;;;;;;12.43;3.00;;;18.50;99.90;;;;;;5097455;28;20182;-54
2022/08/28 06:58:10;;;;;;;8.77;2.17;;;18.50;99.90;;;;;;5088402;28;20189;-56
2022/08/28 07:00:36;;;;;;;9.90;2.22;;;18.50;99.90;;;;;;5094637;28;20213;-61
2022/08/28 07:03:04;;;;;;;6.97;2.28;;;18.60;99.90;;;;;;5108048;28;20184;-56
2022/08/28 07:05:31;;;;;;;19.00;10.00;;;18.60;99.90;;;;;;5111516;28;20173;-56
2022/08/28 07:07:58;;;;;;;10.98;2.72;;;18.60;99.90;;;;;;5093267;28;20173;-58
2022/08/28 07:10:24;;;;;;;10.77;2.58;;;18.70;99.90;;;;;;5099135;28;20182;-58
2022/08/28 07:12:49;;;;;;;10.23;2.30;;;18.70;99.90;;;;;;5092414;28;20278;-56
2022/08/28 07:15:16;;;;;;;9.48;2.40;;;18.70;99.90;;;;;;5094689;28;20268;-57
2022/08/28 07:17:43;;;;;;;8.73;1.90;;;18.70;99.90;;;;;;5096075;27;20253;-57
2022/08/28 07:20:10;;;;;;;8.90;2.63;;;18.70;99.90;;;;;;5098106;27;20213;-60
2022/08/28 07:22:36;;;;;;;10.93;1.73;;;18.70;99.90;;;;;;5101858;28;20184;-62
2022/08/28 07:25:03;;;;;;;6.93;2.40;;;18.70;99.90;;;;;;5095215;28;20656;-60
2022/08/28 07:27:30;;;;;;;7.13;2.17;;;18.70;99.90;;;;;;5096792;28;20235;-63
2022/08/28 07:29:57;;;;;;;5.30;1.67;;;18.80;99.90;;;;;;5082786;28;20189;-59
2022/08/28 07:32:23;;;;;;;8.98;2.22;;;18.80;99.90;;;;;;5078473;28;20219;-61
2022/08/28 07:34:49;;;;;;;4.40;1.65;;;18.80;99.90;;;;;;5100298;28;20183;-67
2022/08/28 07:37:16;;;;;;;9.38;2.08;;;18.80;99.90;;;;;;5100484;27;20181;-71
2022/08/28 07:39:43;;;;;;;6.28;1.92;;;18.90;99.80;;;;;;5096673;28;20208;-60
2022/08/28 07:44:47;;;;;;;11.48;2.30;;;18.90;99.70;;;;;;5090522;28;20181;-63
2022/08/28 07:44:58;;;;;;;9.85;2.05;;;19.00;99.70;;;;;;5097427;28;20204;-61
2022/08/28 07:47:30;;;;;;;8.27;2.25;;;19.00;99.60;;;;;;5093827;28;20185;-61
2022/08/28 07:49:59;;;;;;;9.98;2.10;;;19.10;99.50;;;;;;5106938;28;20177;-64
2022/08/28 07:52:26;;;;;;;7.28;2.10;;;19.10;99.40;;;;;;5114110;28;20229;-62
2022/08/28 07:54:53;;;;;;;12.60;2.20;;;19.20;99.40;;;;;;5110796;28;20177;-62
2022/08/28 07:57:20;;;;;;;6.28;2.03;;;19.30;99.30;;;;;;5104472;28;20173;-62
2022/08/28 07:59:47;;;;;;;12.43;2.97;;;19.30;99.20;;;;;;5094644;28;20648;-66
2022/08/28 08:02:13;;;;;;;7.00;1.80;;;19.30;99.20;;;;;;5094668;28;20693;-68
2022/08/28 08:04:39;;;;;;;7.18;1.80;;;19.40;99.20;;;;;;5065356;28;20214;-60
2022/08/28 08:07:05;;;;;;;12.07;2.22;;;19.40;98.90;;;;;;5058749;28;20385;-60
2022/08/28 08:09:34;;;;;;;7.95;2.15;;;19.50;98.70;;;;;;5080505;28;20190;-59
2022/08/28 08:12:00;;;;;;;4.78;1.73;;;19.60;98.60;;;;;;5088473;28;20198;-55
2022/08/28 08:14:26;;;;;;;8.32;1.95;;;19.70;98.50;;;;;;5106372;28;20220;-61
2022/08/28 08:16:52;;;;;;;5.60;1.85;;;19.80;98.40;;;;;;5062394;28;20231;-59
2022/08/28 08:19:19;;;;;;;12.75;2.22;;;19.90;98.30;;;;;;5093639;28;20198;-55
2022/08/28 08:21:47;;;;;;;6.45;2.00;;;19.90;98.20;;;;;;5111165;28;20656;-56
2022/08/28 08:24:19;;;;;;;12.25;2.65;;;20.00;98.00;;;;;;5107946;28;20193;-56
2022/08/28 08:26:48;;;;;;;6.80;2.05;;;20.10;97.80;;;;;;5092318;28;20181;-54
2022/08/28 08:29:15;;;;;;;9.85;1.70;;;20.20;97.60;;;;;;5077906;28;20224;-57
2022/08/28 08:31:40;;;;;;;5.90;2.03;;;20.20;97.30;;;;;;5098880;28;20177;-56
2022/08/28 08:34:06;;;;;;;8.35;1.80;;;20.30;97.10;;;;;;5099142;27;20180;-56
2022/08/28 08:36:36;;;;;;;8.73;2.35;;;20.40;96.80;;;;;;5079196;28;20178;-58
2022/08/28 08:39:04;;;;;;;7.55;1.70;;;20.40;96.40;;;;;;5066754;28;20608;-58
2022/08/28 08:41:48;;;;;;;8.30;2.10;;;20.50;96.10;;;;;;5097101;28;20610;-57
2022/08/28 08:44:39;;;;;;;9.43;1.70;;;20.50;95.70;;;;;;5080172;28;20185;-58
2022/08/28 08:47:42;;;;;;;6.90;1.63;;;20.60;95.40;;;;;;5108809;28;20180;-59
2022/08/28 08:50:29;;;;;;;6.50;1.85;;;20.80;94.90;;;;;;5106999;27;20585;-59
2022/08/28 08:53:10;;;;;;;12.20;2.00;;;20.80;94.20;;;;;;5098826;28;20224;-59
2022/08/28 08:55:51;;;;;;;6.47;1.80;;;20.80;94.10;;;;;;5113043;28;20186;-59
2022/08/28 08:58:38;;;;;;;6.82;1.80;;;20.80;94.20;;;;;;5102638;27;20234;-59
2022/08/28 09:01:16;;;;;;;5.82;1.90;;;20.90;93.60;;;;;;5097558;28;20202;-58
2022/08/28 09:04:02;;;;;;;5.47;2.00;;;20.90;93.70;;;;;;5093541;28;20233;-59
2022/08/28 09:06:39;;;;;;;6.68;2.10;;;20.80;93.50;;;;;;5097535;27;20182;-59
2022/08/28 09:09:13;;;;;;;8.27;1.90;;;20.80;93.40;;;;;;5102322;28;20885;-60
2022/08/28 09:11:57;;;;;;;61.40;6.28;;;20.70;93.50;;;;;;5099134;28;20188;-61
2022/08/28 09:14:28;;;;;;;9.80;2.30;;;20.70;93.70;;;;;;5096947;28;20621;-60
2022/08/28 09:16:55;;;;;;;6.63;2.25;;;20.60;93.80;;;;;;5108216;28;20177;-61
2022/08/28 09:19:21;;;;;;;24.75;2.95;;;20.60;93.90;;;;;;5110152;28;20174;-60
2022/08/28 09:21:49;;;;;;;6.80;1.63;;;20.70;94.10;;;;;;5097318;27;20177;-61
2022/08/28 09:24:19;;;;;;;9.57;1.98;;;20.80;94.10;;;;;;5104815;27;20186;-59
2022/08/28 09:26:55;;;;;;;10.63;2.90;;;20.90;94.00;;;;;;5095674;28;20205;-59
2022/08/28 09:29:31;;;;;;;6.25;2.10;;;21.10;93.60;;;;;;5096323;28;20626;-60
2022/08/28 09:31:57;;;;;;;7.43;1.88;;;21.30;93.50;;;;;;5078999;28;20256;-59
2022/08/28 09:34:24;;;;;;;5.13;1.63;;;21.50;93.00;;;;;;5079519;28;20271;-59
2022/08/28 09:36:52;;;;;;;3.90;1.67;;;21.60;92.30;;;;;;5096193;28;20193;-59
2022/08/28 09:39:22;;;;;;;6.53;1.77;;;21.80;91.80;;;;;;5095277;28;20173;-60
2022/08/28 09:45:21;;;;;;;8.32;1.75;;;22.10;90.90;;;;;;5051276;28;20194;-58
2022/08/28 09:47:49;;;;;;;6.80;1.83;;;22.30;90.50;;;;;;5108868;28;20185;-59
2022/08/28 09:50:15;;;;;;;5.25;1.70;;;22.50;89.70;;;;;;5096545;28;20227;-59
2022/08/28 09:52:40;;;;;;;8.15;2.03;;;22.60;88.60;;;;;;5078188;28;20249;-59
2022/08/28 09:55:11;;;;;;;4.60;1.58;;;22.70;87.60;;;;;;5101621;28;20225;-59
2022/08/28 09:57:42;;;;;;;5.35;1.50;;;22.90;86.40;;;;;;5112626;28;20204;-60
2022/08/28 10:00:08;;;;;;;5.25;1.67;;;23.00;84.60;;;;;;5103597;28;20209;-59
2022/08/28 10:02:52;;;;;;;7.57;1.40;;;23.10;83.20;;;;;;5104059;28;20261;-59
2022/08/28 10:05:36;;;;;;;3.85;1.38;;;23.20;82.60;;;;;;5100902;28;20637;-59
2022/08/28 10:08:39;;;;;;;4.72;1.60;;;23.20;81.50;;;;;;5104862;28;20230;-59
2022/08/28 10:11:37;;;;;;;5.30;1.80;;;23.30;81.10;;;;;;5096123;28;20566;-59
2022/08/28 10:14:33;;;;;;;39.50;4.13;;;23.40;80.80;;;;;;5097094;27;20639;-59
2022/08/28 10:16:59;;;;;;;6.07;1.70;;;23.50;80.70;;;;;;5070470;28;20181;-59
2022/08/28 10:19:44;;;;;;;5.68;1.70;;;23.50;78.70;;;;;;5073924;28;20190;-59
2022/08/28 10:22:33;;;;;;;4.97;1.60;;;23.60;78.90;;;;;;5077446;28;20185;-59
2022/08/28 10:25:14;;;;;;;5.90;1.33;;;23.70;78.00;;;;;;5087762;28;20193;-59
2022/08/28 10:28:01;;;;;;;7.05;2.58;;;23.80;76.00;;;;;;5083527;28;20273;-60
2022/08/28 10:30:32;;;;;;;38.53;4.55;;;23.90;76.00;;;;;;5095396;28;20181;-59
2022/08/28 10:33:30;;;;;;;3.58;1.60;;;24.10;73.10;;;;;;5095458;28;20224;-60
2022/08/28 10:36:17;;;;;;;5.82;1.27;;;24.20;72.00;;;;;;5075025;28;20545;-60
2022/08/28 10:38:52;;;;;;;6.65;2.17;;;24.40;71.00;;;;;;5085229;28;20480;-61
2022/08/28 10:41:24;;;;;;;4.28;1.63;;;24.50;69.30;;;;;;5094806;28;20194;-59
2022/08/28 10:43:56;;;;;;;6.75;1.50;;;24.60;68.90;;;;;;5076095;28;20174;-59
2022/08/28 10:46:37;;;;;;;4.45;1.30;;;24.80;67.40;;;;;;5102515;28;20637;-59
2022/08/28 10:49:10;;;;;;;6.15;1.52;;;24.80;65.80;;;;;;5077024;28;20663;-60
2022/08/28 10:51:43;;;;;;;2.80;1.30;;;24.80;65.10;;;;;;5095245;28;20221;-60
2022/08/28 10:54:33;;;;;;;2.80;1.17;;;24.70;64.20;;;;;;5093236;28;20677;-60
2022/08/28 10:57:23;;;;;;;3.60;1.30;;;24.70;64.10;;;;;;5092635;28;20170;-61
2022/08/28 10:59:52;;;;;;;5.45;1.48;;;24.80;64.50;;;;;;5094939;28;20198;-60
2022/08/28 11:02:21;;;;;;;6.47;1.95;;;24.90;64.30;;;;;;5093367;28;20185;-60
2022/08/28 11:04:49;;;;;;;7.93;2.17;;;24.80;63.70;;;;;;5095393;27;20180;-61
2022/08/28 11:07:31;;;;;;;4.63;1.60;;;24.70;63.30;;;;;;5094466;27;20182;-62
2022/08/28 11:10:35;;;;;;;5.00;1.80;;;24.50;63.80;;;;;;5099988;28;20220;-60
2022/08/28 11:13:03;;;;;;;4.68;1.80;;;24.40;64.40;;;;;;5094029;28;20529;-60
2022/08/28 11:15:30;;;;;;;7.72;3.10;;;24.50;65.20;;;;;;5095073;28;20170;-62
2022/08/28 11:18:38;;;;;;;5.70;1.73;;;24.60;65.10;;;;;;5093843;27;20196;-59
2022/08/28 11:21:12;;;;;;;5.13;1.50;;;24.80;65.90;;;;;;5112559;28;20201;-58
2022/08/28 11:23:57;;;;;;;2.78;1.33;;;25.00;65.20;;;;;;5110150;28;20201;-64
2022/08/28 11:26:30;;;;;;;3.53;1.40;;;25.00;63.20;;;;;;5103789;28;20173;-62
2022/08/28 11:28:56;;;;;;;3.28;1.40;;;24.80;63.20;;;;;;5092512;28;20234;-59
2022/08/28 11:31:29;;;;;;;5.53;1.40;;;24.70;63.50;;;;;;5092464;28;20170;-65
2022/08/28 11:33:57;;;;;;;3.72;1.45;;;24.60;63.60;;;;;;5105576;27;20537;-59
2022/08/28 11:36:43;;;;;;;4.20;1.60;;;24.40;64.70;;;;;;5090416;27;20174;-57
2022/08/28 11:39:15;;;;;;;5.68;1.60;;;24.30;65.60;;;;;;5108287;28;20165;-59
2022/08/28 11:42:08;;;;;;;4.57;1.45;;;24.20;66.40;;;;;;5106933;28;20656;-59
2022/08/28 11:44:43;;;;;;;4.55;1.40;;;24.10;66.80;;;;;;5110656;28;20188;-57
2022/08/28 11:47:31;;;;;;;4.32;1.92;;;24.00;67.20;;;;;;5107603;27;20180;-58
2022/08/28 11:50:19;;;;;;;3.83;1.70;;;23.90;67.60;;;;;;5100727;28;21000;-62
2022/08/28 11:52:58;;;;;;;5.30;1.58;;;23.90;68.40;;;;;;5112320;28;20223;-60
2022/08/28 11:55:32;;;;;;;6.32;1.45;;;24.10;67.90;;;;;;5088651;28;20173;-65
2022/08/28 11:58:17;;;;;;;3.50;1.33;;;24.30;67.50;;;;;;5074670;28;20187;-58
2022/08/28 12:00:56;;;;;;;8.18;1.58;;;24.50;67.00;;;;;;5107851;28;20197;-60
2022/08/28 12:03:37;;;;;;;5.70;1.65;;;24.70;65.50;;;;;;5078649;28;20178;-60
2022/08/28 12:06:04;;;;;;;3.53;1.30;;;25.00;63.90;;;;;;5074176;28;20401;-60
2022/08/28 12:08:57;;;;;;;4.22;1.55;;;25.20;63.10;;;;;;5094323;28;20193;-56
2022/08/28 12:11:38;;;;;;;5.32;1.45;;;25.50;62.90;;;;;;5113554;28;20170;-60
2022/08/28 12:14:05;;;;;;;3.92;1.30;;;25.80;62.90;;;;;;5095081;28;20169;-58
2022/08/28 12:16:57;;;;;;;4.18;1.40;;;25.90;62.10;;;;;;5111365;28;20694;-58
2022/08/28 12:19:33;;;;;;;3.92;1.27;;;26.10;60.00;;;;;;5081069;28;20537;-59
2022/08/28 12:22:38;;;;;;;3.95;1.40;;;26.20;58.20;;;;;;5088180;28;20677;-61
2022/08/28 12:25:12;;;;;;;3.30;1.33;;;26.20;56.70;;;;;;5093612;28;20564;-60
2022/08/28 12:27:39;;;;;;;4.85;1.40;;;26.20;56.90;;;;;;5059040;28;20283;-61
2022/08/28 12:30:06;;;;;;;2.28;1.23;;;26.40;56.40;;;;;;5079999;28;20196;-60
2022/08/28 12:33:09;;;;;;;3.15;1.27;;;26.50;55.80;;;;;;5094395;28;20303;-64
2022/08/28 12:35:35;;;;;;;4.53;1.40;;;26.60;55.00;;;;;;5075716;28;20193;-62
2022/08/28 12:38:04;;;;;;;4.22;1.60;;;26.70;54.70;;;;;;5059043;28;20181;-59
2022/08/28 12:40:36;;;;;;;3.58;1.52;;;26.80;54.70;;;;;;5087043;28;20253;-58
2022/08/28 12:43:08;;;;;;;3.13;1.90;;;27.00;54.30;;;;;;5111020;28;20212;-58
2022/08/28 12:45:39;;;;;;;1.95;1.30;;;27.10;54.00;;;;;;5089479;28;20185;-56
2022/08/28 12:48:22;;;;;;;4.13;1.42;;;27.00;53.90;;;;;;5110033;28;20192;-57
2022/08/28 12:51:03;;;;;;;5.28;1.45;;;26.80;52.60;;;;;;5109890;28;20203;-58
2022/08/28 12:53:38;;;;;;;4.20;1.30;;;26.50;52.70;;;;;;5112514;28;20181;-58
2022/08/28 12:56:04;;;;;;;8.27;4.78;;;26.30;53.10;;;;;;5094957;28;20174;-61
2022/08/28 12:58:32;;;;;;;4.05;1.70;;;26.20;52.70;;;;;;5085416;28;20627;-56
2022/08/28 13:01:04;;;;;;;4.43;1.90;;;26.20;52.50;;;;;;5080824;28;20671;-68
2022/08/28 13:03:32;;;;;;;4.80;1.80;;;26.20;52.10;;;;;;5079935;28;20186;-57
2022/08/28 13:06:05;;;;;;;7.68;3.65;;;26.40;52.30;;;;;;5092933;28;20178;-53